sensor_id;sensor_type;location;lat;lon;timestamp;P1;durP1;ratioP1;P2;durP2;ratioP2
18576;SDS011;9418;52.694;13.294;2023-10-09T00:01:00;6.63;;;4.67;;
18576;SDS011;9418;52.694;13.294;2023-10-09T00:03:34;6.23;;;3.13;;
18576;SDS011;9418;52.694;13.294;2023-10-09T00:06:03;3.50;;;3.20;;
18576;SDS011;9418;52.694;13.294;2023-10-09T00:08:31;4.10;;;3.20;;
18576;SDS011;9418;52.694;13.294;2023-10-09T00:11:00;4.10;;;3.67;;
18576;SDS011;9418;52.694;13.294;2023-10-09T00:13:41;4.80;;;3.33;;
18576;SDS011;9418;52.694;13.294;2023-10-09T00:16:15;4.70;;;3.20;;
18576;SDS011;9418;52.694;13.294;2023-10-09T00:18:47;3.47;;;3.00;;
18576;SDS011;9418;52.694;13.294;2023-10-09T00:21:14;4.07;;;3.50;;
18576;SDS011;9418;52.694;13.294;2023-10-09T00:23:42;5.70;;;3.20;;
18576;SDS011;9418;52.694;13.294;2023-10-09T00:26:09;4.53;;;3.60;;
18576;SDS011;9418;52.694;13.294;2023-10-09T00:28:41;4.23;;;3.50;;
18576;SDS011;9418;52.694;13.294;2023-10-09T00:31:08;9.33;;;3.53;;
18576;SDS011;9418;52.694;13.294;2023-10-09T00:33:39;6.80;;;3.40;;
18576;SDS011;9418;52.694;13.294;2023-10-09T00:36:06;9.80;;;3.30;;
18576;SDS011;9418;52.694;13.294;2023-10-09T00:38:35;7.90;;;3.80;;
18576;SDS011;9418;52.694;13.294;2023-10-09T00:41:05;7.80;;;3.97;;
18576;SDS011;9418;52.694;13.294;2023-10-09T00:43:36;11.30;;;3.40;;
18576;SDS011;9418;52.694;13.294;2023-10-09T00:46:08;7.77;;;3.87;;
18576;SDS011;9418;52.694;13.294;2023-10-09T00:48:41;6.23;;;3.73;;
18576;SDS011;9418;52.694;13.294;2023-10-09T00:51:12;8.10;;;3.13;;
18576;SDS011;9418;52.694;13.294;2023-10-09T00:53:43;3.73;;;3.40;;
18576;SDS011;9418;52.694;13.294;2023-10-09T00:56:15;5.73;;;3.40;;
18576;SDS011;9418;52.694;13.294;2023-10-09T00:58:46;8.43;;;3.80;;
18576;SDS011;9418;52.694;13.294;2023-10-09T01:01:20;5.00;;;2.90;;
18576;SDS011;9418;52.694;13.294;2023-10-09T01:03:51;6.33;;;3.00;;
18576;SDS011;9418;52.694;13.294;2023-10-09T01:06:18;6.23;;;3.60;;
18576;SDS011;9418;52.694;13.294;2023-10-09T01:08:46;4.83;;;3.00;;
18576;SDS011;9418;52.694;13.294;2023-10-09T01:11:22;5.70;;;3.30;;
18576;SDS011;9418;52.694;13.294;2023-10-09T01:13:54;6.13;;;3.10;;
18576;SDS011;9418;52.694;13.294;2023-10-09T01:16:37;4.37;;;3.07;;
18576;SDS011;9418;52.694;13.294;2023-10-09T01:19:06;6.53;;;3.80;;
18576;SDS011;9418;52.694;13.294;2023-10-09T01:21:38;4.53;;;3.20;;
18576;SDS011;9418;52.694;13.294;2023-10-09T01:24:06;6.03;;;3.40;;
18576;SDS011;9418;52.694;13.294;2023-10-09T01:26:34;12.70;;;3.07;;
18576;SDS011;9418;52.694;13.294;2023-10-09T01:29:09;4.93;;;3.40;;
18576;SDS011;9418;52.694;13.294;2023-10-09T01:31:39;6.80;;;3.20;;
18576;SDS011;9418;52.694;13.294;2023-10-09T01:34:09;2.97;;;2.60;;
18576;SDS011;9418;52.694;13.294;2023-10-09T01:36:37;6.13;;;3.00;;
18576;SDS011;9418;52.694;13.294;2023-10-09T01:39:04;3.30;;;3.10;;
18576;SDS011;9418;52.694;13.294;2023-10-09T01:41:46;6.30;;;3.03;;
18576;SDS011;9418;52.694;13.294;2023-10-09T01:44:13;5.10;;;3.70;;
18576;SDS011;9418;52.694;13.294;2023-10-09T01:46:41;7.83;;;4.17;;
18576;SDS011;9418;52.694;13.294;2023-10-09T01:49:08;3.20;;;2.90;;
18576;SDS011;9418;52.694;13.294;2023-10-09T01:51:42;8.03;;;3.30;;
18576;SDS011;9418;52.694;13.294;2023-10-09T01:54:10;5.03;;;2.97;;
18576;SDS011;9418;52.694;13.294;2023-10-09T01:56:52;2.90;;;2.60;;
18576;SDS011;9418;52.694;13.294;2023-10-09T01:59:21;5.10;;;3.10;;
18576;SDS011;9418;52.694;13.294;2023-10-09T02:01:48;3.53;;;2.50;;
18576;SDS011;9418;52.694;13.294;2023-10-09T02:04:14;6.70;;;2.97;;
18576;SDS011;9418;52.694;13.294;2023-10-09T02:06:45;6.73;;;3.00;;
18576;SDS011;9418;52.694;13.294;2023-10-09T02:09:16;3.33;;;2.33;;
18576;SDS011;9418;52.694;13.294;2023-10-09T02:11:47;3.13;;;2.63;;
18576;SDS011;9418;52.694;13.294;2023-10-09T02:14:16;5.57;;;3.50;;
18576;SDS011;9418;52.694;13.294;2023-10-09T02:16:45;3.63;;;3.33;;
18576;SDS011;9418;52.694;13.294;2023-10-09T02:19:28;9.77;;;3.63;;
18576;SDS011;9418;52.694;13.294;2023-10-09T02:21:58;6.30;;;3.00;;
18576;SDS011;9418;52.694;13.294;2023-10-09T02:24:27;11.13;;;2.90;;
18576;SDS011;9418;52.694;13.294;2023-10-09T02:27:08;2.90;;;2.60;;
18576;SDS011;9418;52.694;13.294;2023-10-09T02:29:40;3.17;;;2.87;;
18576;SDS011;9418;52.694;13.294;2023-10-09T02:32:07;6.97;;;3.20;;
18576;SDS011;9418;52.694;13.294;2023-10-09T02:34:48;3.93;;;3.23;;
18576;SDS011;9418;52.694;13.294;2023-10-09T02:37:18;3.67;;;2.83;;
18576;SDS011;9418;52.694;13.294;2023-10-09T02:39:49;3.80;;;3.30;;
18576;SDS011;9418;52.694;13.294;2023-10-09T02:42:17;3.70;;;3.10;;
18576;SDS011;9418;52.694;13.294;2023-10-09T02:44:51;5.10;;;3.60;;
18576;SDS011;9418;52.694;13.294;2023-10-09T02:47:17;5.83;;;3.23;;
18576;SDS011;9418;52.694;13.294;2023-10-09T02:49:49;6.47;;;2.90;;
18576;SDS011;9418;52.694;13.294;2023-10-09T02:52:16;3.73;;;3.40;;
18576;SDS011;9418;52.694;13.294;2023-10-09T02:54:44;4.57;;;3.20;;
18576;SDS011;9418;52.694;13.294;2023-10-09T02:57:13;5.47;;;3.40;;
18576;SDS011;9418;52.694;13.294;2023-10-09T02:59:47;8.10;;;3.30;;
18576;SDS011;9418;52.694;13.294;2023-10-09T03:02:16;3.60;;;3.30;;
18576;SDS011;9418;52.694;13.294;2023-10-09T03:04:43;8.50;;;3.70;;
18576;SDS011;9418;52.694;13.294;2023-10-09T03:07:10;6.70;;;3.30;;
18576;SDS011;9418;52.694;13.294;2023-10-09T03:09:38;8.23;;;3.40;;
18576;SDS011;9418;52.694;13.294;2023-10-09T03:12:06;4.60;;;3.07;;
18576;SDS011;9418;52.694;13.294;2023-10-09T03:14:36;3.70;;;3.20;;
18576;SDS011;9418;52.694;13.294;2023-10-09T03:17:04;15.10;;;3.60;;
18576;SDS011;9418;52.694;13.294;2023-10-09T03:19:35;6.07;;;3.13;;
18576;SDS011;9418;52.694;13.294;2023-10-09T03:22:02;9.70;;;3.10;;
18576;SDS011;9418;52.694;13.294;2023-10-09T03:24:30;3.73;;;2.90;;
18576;SDS011;9418;52.694;13.294;2023-10-09T03:26:57;6.93;;;4.47;;
18576;SDS011;9418;52.694;13.294;2023-10-09T03:29:23;4.97;;;3.33;;
18576;SDS011;9418;52.694;13.294;2023-10-09T03:31:53;5.77;;;3.50;;
18576;SDS011;9418;52.694;13.294;2023-10-09T03:34:21;14.60;;;4.00;;
18576;SDS011;9418;52.694;13.294;2023-10-09T03:36:48;4.50;;;3.70;;
18576;SDS011;9418;52.694;13.294;2023-10-09T03:39:24;7.10;;;3.43;;
18576;SDS011;9418;52.694;13.294;2023-10-09T03:41:59;4.93;;;3.50;;
18576;SDS011;9418;52.694;13.294;2023-10-09T03:44:30;4.57;;;3.70;;
18576;SDS011;9418;52.694;13.294;2023-10-09T03:47:00;9.03;;;3.33;;
18576;SDS011;9418;52.694;13.294;2023-10-09T03:49:27;4.10;;;3.27;;
18576;SDS011;9418;52.694;13.294;2023-10-09T03:51:54;4.80;;;2.80;;
18576;SDS011;9418;52.694;13.294;2023-10-09T03:54:21;8.80;;;3.97;;
18576;SDS011;9418;52.694;13.294;2023-10-09T03:56:49;6.90;;;4.07;;
18576;SDS011;9418;52.694;13.294;2023-10-09T03:59:16;6.93;;;3.40;;
18576;SDS011;9418;52.694;13.294;2023-10-09T04:01:45;4.93;;;3.17;;
18576;SDS011;9418;52.694;13.294;2023-10-09T04:04:14;7.50;;;3.43;;
18576;SDS011;9418;52.694;13.294;2023-10-09T04:06:41;3.93;;;3.23;;
18576;SDS011;9418;52.694;13.294;2023-10-09T04:09:08;4.67;;;3.63;;
18576;SDS011;9418;52.694;13.294;2023-10-09T04:11:53;4.23;;;3.23;;
18576;SDS011;9418;52.694;13.294;2023-10-09T04:14:39;6.50;;;4.10;;
18576;SDS011;9418;52.694;13.294;2023-10-09T04:17:14;5.30;;;3.37;;
18576;SDS011;9418;52.694;13.294;2023-10-09T04:19:56;4.40;;;3.70;;
18576;SDS011;9418;52.694;13.294;2023-10-09T04:22:36;4.43;;;4.03;;
18576;SDS011;9418;52.694;13.294;2023-10-09T04:25:04;5.60;;;3.77;;
18576;SDS011;9418;52.694;13.294;2023-10-09T04:27:32;5.77;;;3.80;;
18576;SDS011;9418;52.694;13.294;2023-10-09T04:30:02;6.23;;;4.20;;
18576;SDS011;9418;52.694;13.294;2023-10-09T04:32:32;8.13;;;4.10;;
18576;SDS011;9418;52.694;13.294;2023-10-09T04:35:01;4.67;;;3.73;;
18576;SDS011;9418;52.694;13.294;2023-10-09T04:37:41;9.50;;;4.60;;
18576;SDS011;9418;52.694;13.294;2023-10-09T04:40:10;11.70;;;3.93;;
18576;SDS011;9418;52.694;13.294;2023-10-09T04:42:37;6.30;;;4.17;;
18576;SDS011;9418;52.694;13.294;2023-10-09T04:45:04;4.13;;;3.73;;
18576;SDS011;9418;52.694;13.294;2023-10-09T04:48:12;4.67;;;4.17;;
18576;SDS011;9418;52.694;13.294;2023-10-09T04:50:58;3.63;;;3.33;;
18576;SDS011;9418;52.694;13.294;2023-10-09T04:53:43;6.57;;;4.03;;
18576;SDS011;9418;52.694;13.294;2023-10-09T04:56:15;6.83;;;4.17;;
18576;SDS011;9418;52.694;13.294;2023-10-09T04:58:42;6.53;;;4.07;;
18576;SDS011;9418;52.694;13.294;2023-10-09T05:01:11;8.60;;;5.00;;
18576;SDS011;9418;52.694;13.294;2023-10-09T05:04:00;6.60;;;3.97;;
18576;SDS011;9418;52.694;13.294;2023-10-09T05:06:30;5.50;;;3.67;;
18576;SDS011;9418;52.694;13.294;2023-10-09T05:09:19;6.30;;;4.10;;
18576;SDS011;9418;52.694;13.294;2023-10-09T05:11:46;4.33;;;3.70;;
18576;SDS011;9418;52.694;13.294;2023-10-09T05:14:40;6.30;;;3.70;;
18576;SDS011;9418;52.694;13.294;2023-10-09T05:17:10;6.63;;;3.30;;
18576;SDS011;9418;52.694;13.294;2023-10-09T05:19:42;6.67;;;3.70;;
18576;SDS011;9418;52.694;13.294;2023-10-09T05:22:21;5.57;;;3.30;;
18576;SDS011;9418;52.694;13.294;2023-10-09T05:25:02;6.00;;;3.77;;
18576;SDS011;9418;52.694;13.294;2023-10-09T05:27:41;5.10;;;3.50;;
18576;SDS011;9418;52.694;13.294;2023-10-09T05:30:17;3.73;;;3.43;;
18576;SDS011;9418;52.694;13.294;2023-10-09T05:32:52;15.73;;;3.70;;
18576;SDS011;9418;52.694;13.294;2023-10-09T05:35:23;6.80;;;4.00;;
18576;SDS011;9418;52.694;13.294;2023-10-09T05:38:05;5.87;;;3.73;;
18576;SDS011;9418;52.694;13.294;2023-10-09T05:40:49;12.03;;;3.90;;
18576;SDS011;9418;52.694;13.294;2023-10-09T05:43:18;4.63;;;3.80;;
18576;SDS011;9418;52.694;13.294;2023-10-09T05:46:00;4.50;;;3.00;;
18576;SDS011;9418;52.694;13.294;2023-10-09T05:48:40;4.97;;;3.43;;
18576;SDS011;9418;52.694;13.294;2023-10-09T05:51:19;5.03;;;3.50;;
18576;SDS011;9418;52.694;13.294;2023-10-09T05:54:02;7.10;;;3.53;;
18576;SDS011;9418;52.694;13.294;2023-10-09T05:56:48;6.67;;;3.60;;
18576;SDS011;9418;52.694;13.294;2023-10-09T05:59:34;4.70;;;3.23;;
18576;SDS011;9418;52.694;13.294;2023-10-09T06:02:18;5.73;;;3.37;;
18576;SDS011;9418;52.694;13.294;2023-10-09T06:05:07;7.67;;;4.63;;
18576;SDS011;9418;52.694;13.294;2023-10-09T06:08:03;3.53;;;3.10;;
18576;SDS011;9418;52.694;13.294;2023-10-09T06:10:33;4.27;;;3.37;;
18576;SDS011;9418;52.694;13.294;2023-10-09T06:13:05;6.60;;;3.50;;
18576;SDS011;9418;52.694;13.294;2023-10-09T06:15:49;4.33;;;3.30;;
18576;SDS011;9418;52.694;13.294;2023-10-09T06:18:34;5.20;;;4.27;;
18576;SDS011;9418;52.694;13.294;2023-10-09T06:21:00;7.07;;;4.37;;
18576;SDS011;9418;52.694;13.294;2023-10-09T06:23:35;4.73;;;3.87;;
18576;SDS011;9418;52.694;13.294;2023-10-09T06:26:34;6.87;;;4.57;;
18576;SDS011;9418;52.694;13.294;2023-10-09T06:29:01;5.40;;;3.93;;
18576;SDS011;9418;52.694;13.294;2023-10-09T06:31:40;7.32;;;3.50;;
18576;SDS011;9418;52.694;13.294;2023-10-09T06:34:21;9.63;;;4.67;;
18576;SDS011;9418;52.694;13.294;2023-10-09T06:36:57;4.83;;;4.33;;
18576;SDS011;9418;52.694;13.294;2023-10-09T06:39:30;6.27;;;4.57;;
18576;SDS011;9418;52.694;13.294;2023-10-09T06:42:16;5.10;;;3.97;;
18576;SDS011;9418;52.694;13.294;2023-10-09T06:44:59;7.23;;;4.37;;
18576;SDS011;9418;52.694;13.294;2023-10-09T06:47:30;8.03;;;3.90;;
18576;SDS011;9418;52.694;13.294;2023-10-09T06:50:06;7.43;;;4.47;;
18576;SDS011;9418;52.694;13.294;2023-10-09T06:52:50;4.30;;;3.87;;
18576;SDS011;9418;52.694;13.294;2023-10-09T06:55:22;4.93;;;4.40;;
18576;SDS011;9418;52.694;13.294;2023-10-09T06:57:59;8.67;;;4.50;;
18576;SDS011;9418;52.694;13.294;2023-10-09T07:00:26;5.47;;;4.33;;
18576;SDS011;9418;52.694;13.294;2023-10-09T07:03:11;6.43;;;4.40;;
18576;SDS011;9418;52.694;13.294;2023-10-09T07:05:37;6.83;;;5.10;;
18576;SDS011;9418;52.694;13.294;2023-10-09T07:08:13;5.80;;;4.93;;
18576;SDS011;9418;52.694;13.294;2023-10-09T07:11:06;9.67;;;4.63;;
18576;SDS011;9418;52.694;13.294;2023-10-09T07:14:08;8.90;;;4.63;;
18576;SDS011;9418;52.694;13.294;2023-10-09T07:16:55;8.70;;;5.23;;
18576;SDS011;9418;52.694;13.294;2023-10-09T07:19:23;4.40;;;4.10;;
18576;SDS011;9418;52.694;13.294;2023-10-09T07:22:00;5.73;;;4.33;;
18576;SDS011;9418;52.694;13.294;2023-10-09T07:24:28;10.20;;;5.33;;
18576;SDS011;9418;52.694;13.294;2023-10-09T07:27:04;5.70;;;4.33;;
18576;SDS011;9418;52.694;13.294;2023-10-09T07:29:39;5.93;;;4.60;;
18576;SDS011;9418;52.694;13.294;2023-10-09T07:32:13;6.43;;;4.73;;
18576;SDS011;9418;52.694;13.294;2023-10-09T07:34:45;4.90;;;4.40;;
18576;SDS011;9418;52.694;13.294;2023-10-09T07:37:24;10.20;;;5.43;;
18576;SDS011;9418;52.694;13.294;2023-10-09T07:39:55;5.07;;;4.20;;
18576;SDS011;9418;52.694;13.294;2023-10-09T07:42:24;6.93;;;6.03;;
18576;SDS011;9418;52.694;13.294;2023-10-09T07:45:09;10.23;;;5.20;;
18576;SDS011;9418;52.694;13.294;2023-10-09T07:47:58;17.43;;;9.90;;
18576;SDS011;9418;52.694;13.294;2023-10-09T07:50:34;11.90;;;10.17;;
18576;SDS011;9418;52.694;13.294;2023-10-09T07:53:05;14.80;;;10.10;;
18576;SDS011;9418;52.694;13.294;2023-10-09T07:55:43;12.10;;;8.40;;
18576;SDS011;9418;52.694;13.294;2023-10-09T07:58:20;9.23;;;6.40;;
18576;SDS011;9418;52.694;13.294;2023-10-09T08:00:50;5.27;;;4.77;;
18576;SDS011;9418;52.694;13.294;2023-10-09T08:03:33;4.67;;;3.97;;
18576;SDS011;9418;52.694;13.294;2023-10-09T08:06:00;4.90;;;4.50;;
18576;SDS011;9418;52.694;13.294;2023-10-09T08:08:53;7.23;;;5.03;;
18576;SDS011;9418;52.694;13.294;2023-10-09T08:11:33;4.77;;;4.00;;
18576;SDS011;9418;52.694;13.294;2023-10-09T08:14:24;6.00;;;4.60;;
18576;SDS011;9418;52.694;13.294;2023-10-09T08:17:05;6.77;;;4.87;;
18576;SDS011;9418;52.694;13.294;2023-10-09T08:19:39;10.17;;;6.13;;
18576;SDS011;9418;52.694;13.294;2023-10-09T08:22:20;8.40;;;6.53;;
18576;SDS011;9418;52.694;13.294;2023-10-09T08:25:08;6.10;;;5.50;;
18576;SDS011;9418;52.694;13.294;2023-10-09T08:27:51;10.80;;;7.03;;
18576;SDS011;9418;52.694;13.294;2023-10-09T08:30:21;16.30;;;5.30;;
18576;SDS011;9418;52.694;13.294;2023-10-09T08:33:05;5.20;;;4.70;;
18576;SDS011;9418;52.694;13.294;2023-10-09T08:35:54;6.63;;;4.83;;
18576;SDS011;9418;52.694;13.294;2023-10-09T08:38:27;9.17;;;5.30;;
18576;SDS011;9418;52.694;13.294;2023-10-09T08:41:05;7.80;;;4.67;;
18576;SDS011;9418;52.694;13.294;2023-10-09T08:43:40;6.67;;;5.10;;
18576;SDS011;9418;52.694;13.294;2023-10-09T08:46:15;6.03;;;4.53;;
18576;SDS011;9418;52.694;13.294;2023-10-09T08:48:47;11.10;;;4.73;;
18576;SDS011;9418;52.694;13.294;2023-10-09T08:51:14;6.57;;;4.80;;
18576;SDS011;9418;52.694;13.294;2023-10-09T08:53:43;4.90;;;4.50;;
18576;SDS011;9418;52.694;13.294;2023-10-09T08:56:11;5.80;;;4.60;;
18576;SDS011;9418;52.694;13.294;2023-10-09T08:58:40;5.40;;;4.90;;
18576;SDS011;9418;52.694;13.294;2023-10-09T09:01:06;5.77;;;4.70;;
18576;SDS011;9418;52.694;13.294;2023-10-09T09:03:41;6.07;;;5.40;;
18576;SDS011;9418;52.694;13.294;2023-10-09T09:06:09;12.60;;;6.10;;
18576;SDS011;9418;52.694;13.294;2023-10-09T09:08:37;11.03;;;5.47;;
18576;SDS011;9418;52.694;13.294;2023-10-09T09:11:04;14.47;;;4.97;;
18576;SDS011;9418;52.694;13.294;2023-10-09T09:13:38;7.47;;;6.20;;
18576;SDS011;9418;52.694;13.294;2023-10-09T09:16:13;8.40;;;7.30;;
18576;SDS011;9418;52.694;13.294;2023-10-09T09:18:50;6.93;;;5.40;;
18576;SDS011;9418;52.694;13.294;2023-10-09T09:21:21;8.83;;;6.70;;
18576;SDS011;9418;52.694;13.294;2023-10-09T09:23:55;9.30;;;7.20;;
18576;SDS011;9418;52.694;13.294;2023-10-09T09:26:35;6.20;;;5.00;;
18576;SDS011;9418;52.694;13.294;2023-10-09T09:29:04;21.07;;;7.30;;
18576;SDS011;9418;52.694;13.294;2023-10-09T09:31:32;7.47;;;5.90;;
18576;SDS011;9418;52.694;13.294;2023-10-09T09:34:04;12.40;;;5.80;;
18576;SDS011;9418;52.694;13.294;2023-10-09T09:36:51;7.30;;;5.53;;
18576;SDS011;9418;52.694;13.294;2023-10-09T09:39:23;6.43;;;5.37;;
18576;SDS011;9418;52.694;13.294;2023-10-09T09:41:54;7.20;;;6.30;;
18576;SDS011;9418;52.694;13.294;2023-10-09T09:44:28;6.07;;;5.40;;
18576;SDS011;9418;52.694;13.294;2023-10-09T09:46:58;8.90;;;6.03;;
18576;SDS011;9418;52.694;13.294;2023-10-09T09:49:28;10.10;;;5.67;;
18576;SDS011;9418;52.694;13.294;2023-10-09T09:51:58;9.80;;;6.80;;
18576;SDS011;9418;52.694;13.294;2023-10-09T09:54:28;11.30;;;7.43;;
18576;SDS011;9418;52.694;13.294;2023-10-09T09:56:58;9.00;;;7.63;;
18576;SDS011;9418;52.694;13.294;2023-10-09T09:59:33;8.10;;;7.20;;
18576;SDS011;9418;52.694;13.294;2023-10-09T10:02:15;9.10;;;7.50;;
18576;SDS011;9418;52.694;13.294;2023-10-09T10:04:50;13.13;;;7.67;;
18576;SDS011;9418;52.694;13.294;2023-10-09T10:07:21;8.23;;;7.27;;
18576;SDS011;9418;52.694;13.294;2023-10-09T10:09:50;9.87;;;8.07;;
18576;SDS011;9418;52.694;13.294;2023-10-09T10:18:30;10.43;;;7.53;;
18576;SDS011;9418;52.694;13.294;2023-10-09T10:21:12;9.17;;;8.27;;
18576;SDS011;9418;52.694;13.294;2023-10-09T10:23:42;7.70;;;6.70;;
18576;SDS011;9418;52.694;13.294;2023-10-09T10:26:18;7.70;;;6.90;;
18576;SDS011;9418;52.694;13.294;2023-10-09T10:29:13;8.40;;;7.03;;
18576;SDS011;9418;52.694;13.294;2023-10-09T10:31:57;7.00;;;6.30;;
18576;SDS011;9418;52.694;13.294;2023-10-09T10:34:25;7.40;;;6.70;;
18576;SDS011;9418;52.694;13.294;2023-10-09T10:36:53;8.53;;;6.70;;
18576;SDS011;9418;52.694;13.294;2023-10-09T10:39:23;8.60;;;7.50;;
18576;SDS011;9418;52.694;13.294;2023-10-09T10:42:07;8.60;;;7.60;;
18576;SDS011;9418;52.694;13.294;2023-10-09T10:44:39;7.30;;;6.47;;
18576;SDS011;9418;52.694;13.294;2023-10-09T10:47:09;11.03;;;6.90;;
18576;SDS011;9418;52.694;13.294;2023-10-09T10:49:50;7.30;;;6.60;;
18576;SDS011;9418;52.694;13.294;2023-10-09T10:52:24;9.60;;;6.27;;
18576;SDS011;9418;52.694;13.294;2023-10-09T10:55:07;7.90;;;6.70;;
18576;SDS011;9418;52.694;13.294;2023-10-09T10:57:57;8.77;;;7.80;;
18576;SDS011;9418;52.694;13.294;2023-10-09T11:00:25;8.53;;;7.23;;
18576;SDS011;9418;52.694;13.294;2023-10-09T11:03:16;7.17;;;6.47;;
18576;SDS011;9418;52.694;13.294;2023-10-09T11:05:48;7.93;;;6.10;;
18576;SDS011;9418;52.694;13.294;2023-10-09T11:08:18;6.83;;;6.23;;
18576;SDS011;9418;52.694;13.294;2023-10-09T11:10:49;6.60;;;5.93;;
18576;SDS011;9418;52.694;13.294;2023-10-09T11:13:20;6.63;;;5.90;;
18576;SDS011;9418;52.694;13.294;2023-10-09T11:15:58;7.53;;;6.00;;
18576;SDS011;9418;52.694;13.294;2023-10-09T11:18:39;9.20;;;6.53;;
18576;SDS011;9418;52.694;13.294;2023-10-09T11:21:11;8.03;;;6.63;;
18576;SDS011;9418;52.694;13.294;2023-10-09T11:24:00;6.20;;;5.60;;
18576;SDS011;9418;52.694;13.294;2023-10-09T11:26:42;8.30;;;5.23;;
18576;SDS011;9418;52.694;13.294;2023-10-09T11:29:19;6.50;;;5.27;;
18576;SDS011;9418;52.694;13.294;2023-10-09T11:31:57;6.20;;;5.13;;
18576;SDS011;9418;52.694;13.294;2023-10-09T11:34:24;6.10;;;5.30;;
18576;SDS011;9418;52.694;13.294;2023-10-09T11:36:58;11.20;;;6.87;;
18576;SDS011;9418;52.694;13.294;2023-10-09T11:39:27;8.67;;;5.20;;
18576;SDS011;9418;52.694;13.294;2023-10-09T11:42:06;6.10;;;4.90;;
18576;SDS011;9418;52.694;13.294;2023-10-09T11:44:36;10.33;;;4.10;;
18576;SDS011;9418;52.694;13.294;2023-10-09T11:47:06;4.80;;;4.07;;
18576;SDS011;9418;52.694;13.294;2023-10-09T11:49:58;8.87;;;5.47;;
18576;SDS011;9418;52.694;13.294;2023-10-09T11:52:54;5.50;;;4.60;;
18576;SDS011;9418;52.694;13.294;2023-10-09T11:55:40;8.03;;;4.33;;
18576;SDS011;9418;52.694;13.294;2023-10-09T11:58:07;5.57;;;4.47;;
18576;SDS011;9418;52.694;13.294;2023-10-09T12:00:34;3.80;;;3.40;;
18576;SDS011;9418;52.694;13.294;2023-10-09T12:03:10;4.43;;;3.90;;
18576;SDS011;9418;52.694;13.294;2023-10-09T12:05:38;5.37;;;4.00;;
18576;SDS011;9418;52.694;13.294;2023-10-09T12:08:07;4.57;;;4.17;;
18576;SDS011;9418;52.694;13.294;2023-10-09T12:10:34;7.70;;;4.13;;
18576;SDS011;9418;52.694;13.294;2023-10-09T12:13:05;7.37;;;4.07;;
18576;SDS011;9418;52.694;13.294;2023-10-09T12:15:32;4.33;;;3.70;;
18576;SDS011;9418;52.694;13.294;2023-10-09T12:18:03;4.97;;;3.40;;
18576;SDS011;9418;52.694;13.294;2023-10-09T12:20:31;4.03;;;3.60;;
18576;SDS011;9418;52.694;13.294;2023-10-09T12:23:00;13.10;;;3.93;;
18576;SDS011;9418;52.694;13.294;2023-10-09T12:25:29;6.53;;;3.50;;
18576;SDS011;9418;52.694;13.294;2023-10-09T12:27:57;10.47;;;4.70;;
18576;SDS011;9418;52.694;13.294;2023-10-09T12:30:27;6.60;;;4.10;;
18576;SDS011;9418;52.694;13.294;2023-10-09T12:32:54;3.60;;;3.30;;
18576;SDS011;9418;52.694;13.294;2023-10-09T12:35:22;5.83;;;3.90;;
18576;SDS011;9418;52.694;13.294;2023-10-09T12:37:50;8.63;;;4.50;;
18576;SDS011;9418;52.694;13.294;2023-10-09T12:40:17;5.40;;;4.90;;
18576;SDS011;9418;52.694;13.294;2023-10-09T12:42:49;5.30;;;4.80;;
18576;SDS011;9418;52.694;13.294;2023-10-09T12:45:17;9.60;;;5.63;;
18576;SDS011;9418;52.694;13.294;2023-10-09T12:47:52;6.00;;;4.30;;
18576;SDS011;9418;52.694;13.294;2023-10-09T12:50:23;6.37;;;3.80;;
18576;SDS011;9418;52.694;13.294;2023-10-09T12:52:54;7.63;;;4.93;;
18576;SDS011;9418;52.694;13.294;2023-10-09T12:55:21;6.40;;;4.27;;
18576;SDS011;9418;52.694;13.294;2023-10-09T12:57:56;4.00;;;3.70;;
18576;SDS011;9418;52.694;13.294;2023-10-09T13:00:25;6.70;;;4.30;;
18576;SDS011;9418;52.694;13.294;2023-10-09T13:02:53;5.20;;;4.40;;
18576;SDS011;9418;52.694;13.294;2023-10-09T13:05:20;7.40;;;4.57;;
18576;SDS011;9418;52.694;13.294;2023-10-09T13:07:51;6.30;;;4.57;;
18576;SDS011;9418;52.694;13.294;2023-10-09T13:10:17;6.73;;;3.87;;
18576;SDS011;9418;52.694;13.294;2023-10-09T13:12:44;4.87;;;3.40;;
18576;SDS011;9418;52.694;13.294;2023-10-09T13:15:11;5.60;;;4.10;;
18576;SDS011;9418;52.694;13.294;2023-10-09T13:17:39;4.87;;;4.37;;
18576;SDS011;9418;52.694;13.294;2023-10-09T13:20:08;4.70;;;4.20;;
18576;SDS011;9418;52.694;13.294;2023-10-09T13:22:38;5.03;;;4.37;;
18576;SDS011;9418;52.694;13.294;2023-10-09T13:25:06;6.37;;;4.40;;
18576;SDS011;9418;52.694;13.294;2023-10-09T13:27:39;12.50;;;4.53;;
18576;SDS011;9418;52.694;13.294;2023-10-09T13:30:06;6.40;;;5.40;;
18576;SDS011;9418;52.694;13.294;2023-10-09T13:32:46;7.63;;;4.73;;
18576;SDS011;9418;52.694;13.294;2023-10-09T13:35:15;6.23;;;5.50;;
18576;SDS011;9418;52.694;13.294;2023-10-09T13:37:43;6.93;;;4.90;;
18576;SDS011;9418;52.694;13.294;2023-10-09T13:40:19;7.00;;;5.00;;
18576;SDS011;9418;52.694;13.294;2023-10-09T13:42:51;6.50;;;4.77;;
18576;SDS011;9418;52.694;13.294;2023-10-09T13:45:19;6.30;;;4.80;;
18576;SDS011;9418;52.694;13.294;2023-10-09T13:47:52;6.43;;;5.13;;
18576;SDS011;9418;52.694;13.294;2023-10-09T13:50:22;6.77;;;4.23;;
18576;SDS011;9418;52.694;13.294;2023-10-09T13:52:54;5.00;;;4.50;;
18576;SDS011;9418;52.694;13.294;2023-10-09T13:55:21;8.57;;;5.00;;
18576;SDS011;9418;52.694;13.294;2023-10-09T13:57:49;4.77;;;4.07;;
18576;SDS011;9418;52.694;13.294;2023-10-09T14:00:15;6.17;;;4.27;;
18576;SDS011;9418;52.694;13.294;2023-10-09T14:02:57;5.53;;;5.00;;
18576;SDS011;9418;52.694;13.294;2023-10-09T14:05:27;5.77;;;5.20;;
18576;SDS011;9418;52.694;13.294;2023-10-09T14:07:54;5.60;;;4.90;;
18576;SDS011;9418;52.694;13.294;2023-10-09T14:10:25;14.73;;;5.87;;
18576;SDS011;9418;52.694;13.294;2023-10-09T14:12:55;7.07;;;4.83;;
18576;SDS011;9418;52.694;13.294;2023-10-09T14:15:22;8.63;;;6.40;;
18576;SDS011;9418;52.694;13.294;2023-10-09T14:17:49;8.93;;;6.17;;
18576;SDS011;9418;52.694;13.294;2023-10-09T14:20:20;6.47;;;5.27;;
18576;SDS011;9418;52.694;13.294;2023-10-09T14:22:57;5.63;;;5.13;;
18576;SDS011;9418;52.694;13.294;2023-10-09T14:25:31;6.57;;;6.03;;
18576;SDS011;9418;52.694;13.294;2023-10-09T14:27:58;9.33;;;6.20;;
18576;SDS011;9418;52.694;13.294;2023-10-09T14:30:25;13.13;;;7.80;;
18576;SDS011;9418;52.694;13.294;2023-10-09T14:32:58;7.77;;;6.30;;
18576;SDS011;9418;52.694;13.294;2023-10-09T14:35:26;7.27;;;6.57;;
18576;SDS011;9418;52.694;13.294;2023-10-09T14:37:55;7.97;;;6.40;;
18576;SDS011;9418;52.694;13.294;2023-10-09T14:40:23;8.40;;;7.20;;
18576;SDS011;9418;52.694;13.294;2023-10-09T14:42:56;9.17;;;7.17;;
18576;SDS011;9418;52.694;13.294;2023-10-09T14:45:23;7.80;;;6.40;;
18576;SDS011;9418;52.694;13.294;2023-10-09T14:47:51;11.53;;;6.93;;
18576;SDS011;9418;52.694;13.294;2023-10-09T14:50:18;9.43;;;7.30;;
18576;SDS011;9418;52.694;13.294;2023-10-09T14:52:47;8.43;;;7.33;;
18576;SDS011;9418;52.694;13.294;2023-10-09T14:55:15;12.30;;;7.07;;
18576;SDS011;9418;52.694;13.294;2023-10-09T14:57:47;11.70;;;8.63;;
18576;SDS011;9418;52.694;13.294;2023-10-09T15:00:15;9.20;;;8.30;;
18576;SDS011;9418;52.694;13.294;2023-10-09T15:02:47;12.60;;;8.53;;
18576;SDS011;9418;52.694;13.294;2023-10-09T15:05:15;11.53;;;7.97;;
18576;SDS011;9418;52.694;13.294;2023-10-09T15:07:42;9.90;;;8.00;;
18576;SDS011;9418;52.694;13.294;2023-10-09T15:10:08;23.47;;;13.23;;
18576;SDS011;9418;52.694;13.294;2023-10-09T15:12:35;11.50;;;9.80;;
18576;SDS011;9418;52.694;13.294;2023-10-09T15:15:10;17.47;;;10.70;;
18576;SDS011;9418;52.694;13.294;2023-10-09T15:17:39;11.43;;;9.70;;
18576;SDS011;9418;52.694;13.294;2023-10-09T15:20:09;17.47;;;9.90;;
18576;SDS011;9418;52.694;13.294;2023-10-09T15:22:38;14.17;;;9.23;;
18576;SDS011;9418;52.694;13.294;2023-10-09T15:25:06;12.40;;;9.40;;
18576;SDS011;9418;52.694;13.294;2023-10-09T15:27:33;15.43;;;10.20;;